createdAt,value
2018-07-27T00:01:03.934Z,21.50
2018-07-27T00:03:32.124Z,21.40
2018-07-27T00:06:00.285Z,21.40
2018-07-27T00:10:56.396Z,21.40
2018-07-27T00:13:24.715Z,21.40
2018-07-27T00:15:52.921Z,21.30
2018-07-27T00:18:21.132Z,21.30
2018-07-27T00:20:50.011Z,21.30
2018-07-27T00:23:18.186Z,21.20
2018-07-27T00:25:46.333Z,21.20
2018-07-27T00:28:14.513Z,21.00
2018-07-27T00:30:42.973Z,21.20
2018-07-27T00:33:11.138Z,21.10
2018-07-27T00:35:39.342Z,21.10
2018-07-27T00:38:07.602Z,21.00
2018-07-27T00:43:03.728Z,21.00
2018-07-27T00:45:31.903Z,20.90
2018-07-27T00:48:00.070Z,20.90
2018-07-27T00:52:56.217Z,20.80
2018-07-27T00:55:24.381Z,20.70
2018-07-27T00:57:52.540Z,20.70
2018-07-27T01:00:20.734Z,20.70
2018-07-27T01:02:48.912Z,20.70
2018-07-27T01:05:17.076Z,20.70
2018-07-27T01:07:45.241Z,20.70
2018-07-27T01:10:13.402Z,20.60
2018-07-27T01:15:16.080Z,20.60
2018-07-27T01:22:49.993Z,20.60
2018-07-27T01:25:18.145Z,20.60
2018-07-27T01:27:46.319Z,20.50
2018-07-27T01:30:14.473Z,20.50
2018-07-27T01:32:42.603Z,20.40
2018-07-27T01:35:10.764Z,20.40
2018-07-27T01:37:38.923Z,20.40
2018-07-27T01:40:07.344Z,20.40
2018-07-27T01:42:35.772Z,20.50
2018-07-27T01:45:03.936Z,20.40
2018-07-27T01:47:32.100Z,20.40
2018-07-27T01:50:00.273Z,20.30
2018-07-27T01:52:28.399Z,20.20
2018-07-27T01:54:56.552Z,20.20
2018-07-27T01:57:24.690Z,20.20
2018-07-27T01:59:52.831Z,20.10
2018-07-27T02:02:20.968Z,20.10
2018-07-27T02:04:49.104Z,20.00
2018-07-27T02:07:17.269Z,19.90
2018-07-27T02:09:45.418Z,20.00
2018-07-27T02:12:13.576Z,20.00
2018-07-27T02:14:41.709Z,19.90
2018-07-27T02:17:09.881Z,19.90
2018-07-27T02:19:38.011Z,19.90
2018-07-27T02:22:06.136Z,19.90
2018-07-27T02:27:02.193Z,19.80
2018-07-27T02:34:26.733Z,19.70
2018-07-27T02:36:54.868Z,19.70
2018-07-27T02:39:22.998Z,19.70
2018-07-27T02:44:19.044Z,19.60
2018-07-27T02:46:47.191Z,19.60
2018-07-27T02:49:15.331Z,19.50
2018-07-27T02:51:43.461Z,19.50
2018-07-27T02:54:11.589Z,19.60
2018-07-27T02:59:07.651Z,19.50
2018-07-27T03:01:35.781Z,19.50
2018-07-27T03:04:03.938Z,19.40
2018-07-27T03:06:32.076Z,19.40
2018-07-27T03:09:00.239Z,19.30
2018-07-27T03:11:28.389Z,19.30
2018-07-27T03:13:56.541Z,19.20
2018-07-27T03:18:52.577Z,19.20
2018-07-27T03:21:20.709Z,19.10
2018-07-27T03:23:48.837Z,19.10
2018-07-27T03:26:16.977Z,19.10
2018-07-27T03:31:13.400Z,19.10
2018-07-27T03:33:41.617Z,19.10
2018-07-27T03:36:09.759Z,19.10
2018-07-27T03:38:39.624Z,19.00
2018-07-27T03:41:08.252Z,19.00
2018-07-27T03:43:36.400Z,19.00
2018-07-27T03:46:04.579Z,19.00
2018-07-27T03:48:32.753Z,19.00
2018-07-27T03:51:00.884Z,18.90
2018-07-27T03:55:56.928Z,18.80
2018-07-27T04:00:53.005Z,18.80
2018-07-27T04:03:21.163Z,18.80
2018-07-27T04:05:49.299Z,18.70
2018-07-27T04:08:17.429Z,18.70
2018-07-27T04:10:45.564Z,18.70
2018-07-27T04:13:13.755Z,18.70
2018-07-27T04:15:41.903Z,18.70
2018-07-27T04:18:10.058Z,18.70
2018-07-27T04:20:38.192Z,18.70
2018-07-27T04:23:06.369Z,18.80
2018-07-27T04:25:34.536Z,18.80
2018-07-27T04:28:02.704Z,18.90
2018-07-27T04:30:30.838Z,18.90
2018-07-27T04:32:58.956Z,19.20
2018-07-27T04:35:27.122Z,19.30
2018-07-27T04:37:55.268Z,19.50
2018-07-27T04:40:23.412Z,19.70
2018-07-27T04:42:51.572Z,19.80
2018-07-27T04:45:19.685Z,19.80
2018-07-27T04:50:15.709Z,19.80
2018-07-27T04:55:11.779Z,19.90
2018-07-27T04:57:39.945Z,19.90
2018-07-27T05:00:08.104Z,20.00
2018-07-27T05:02:36.252Z,20.10
2018-07-27T05:07:32.350Z,20.10
2018-07-27T05:10:01.330Z,20.20
2018-07-27T05:12:29.473Z,20.20
2018-07-27T05:14:57.600Z,20.40
2018-07-27T05:19:53.665Z,20.70
2018-07-27T05:24:49.704Z,20.90
2018-07-27T05:27:17.856Z,21.00
2018-07-27T05:29:46.003Z,21.00
2018-07-27T05:32:14.157Z,21.40
2018-07-27T05:34:42.288Z,21.50
2018-07-27T05:37:10.429Z,21.50
2018-07-27T05:42:06.483Z,21.70
2018-07-27T05:47:02.625Z,21.80
2018-07-27T05:54:26.511Z,22.10
2018-07-27T05:56:54.684Z,22.20
2018-07-27T05:59:22.876Z,22.30
2018-07-27T06:01:50.973Z,22.40
2018-07-27T06:04:19.145Z,22.60
2018-07-27T06:11:43.124Z,22.80
2018-07-27T06:14:11.273Z,23.00
2018-07-27T06:16:39.391Z,23.10
2018-07-27T06:24:03.528Z,23.60
2018-07-27T06:33:55.381Z,24.00
2018-07-27T06:36:23.502Z,24.10
2018-07-27T06:38:51.648Z,24.30
2018-07-27T06:41:19.786Z,24.40
2018-07-27T06:43:47.937Z,24.40
2018-07-27T06:46:16.088Z,24.50
2018-07-27T06:48:44.212Z,24.70
2018-07-27T06:51:12.337Z,24.90
2018-07-27T06:53:40.519Z,24.90
2018-07-27T06:56:08.642Z,25.20
2018-07-27T07:01:04.726Z,25.50
2018-07-27T07:06:00.766Z,26.00
2018-07-27T07:08:28.940Z,26.00
2018-07-27T07:10:57.083Z,26.10
2018-07-27T07:13:25.220Z,26.30
2018-07-27T07:18:21.312Z,26.30
2018-07-27T07:20:49.524Z,26.70
2018-07-27T07:25:45.706Z,27.10
2018-07-27T07:28:13.721Z,27.10
2018-07-27T07:30:41.872Z,27.20
2018-07-27T07:38:05.873Z,27.70
2018-07-27T07:45:29.843Z,28.00
2018-07-27T07:50:31.825Z,28.60
2018-07-27T07:55:27.893Z,28.90
2018-07-27T07:57:56.040Z,29.20
2018-07-27T08:05:19.960Z,29.70
2018-07-27T08:07:48.097Z,29.70
2018-07-27T08:12:44.168Z,30.00
2018-07-27T08:22:36.000Z,31.50
2018-07-27T08:25:04.261Z,31.00
2018-07-27T08:32:28.216Z,32.60
2018-07-27T08:34:56.362Z,32.60
2018-07-27T08:39:52.409Z,32.50
2018-07-27T08:42:20.566Z,33.00
2018-07-27T08:44:48.697Z,32.50
2018-07-27T08:47:16.919Z,32.70
2018-07-27T08:49:45.009Z,33.00
2018-07-27T08:52:13.156Z,32.90
2018-07-27T08:54:41.304Z,33.60
2018-07-27T08:57:09.453Z,34.10
2018-07-27T09:04:33.432Z,33.70
2018-07-27T09:07:01.583Z,34.00
2018-07-27T09:14:25.574Z,33.50
2018-07-27T09:16:53.696Z,34.00
2018-07-27T09:26:45.580Z,33.90
2018-07-27T09:31:41.652Z,35.00
2018-07-27T09:41:34.976Z,35.60
2018-07-27T09:48:59.009Z,36.30
2018-07-27T09:56:22.988Z,35.00
2018-07-27T09:58:51.121Z,34.90
2018-07-27T10:11:15.728Z,37.40
2018-07-27T10:18:39.693Z,38.00
2018-07-27T10:26:04.177Z,36.20
2018-07-27T10:28:32.465Z,37.80
2018-07-27T10:33:28.567Z,38.90
2018-07-27T10:43:20.460Z,39.20
2018-07-27T10:45:48.614Z,39.70
2018-07-27T10:50:44.669Z,39.50
2018-07-27T10:53:12.821Z,39.50
2018-07-27T10:55:40.973Z,39.30
2018-07-27T11:00:37.032Z,38.70
2018-07-27T11:03:05.171Z,39.10
2018-07-27T11:08:01.220Z,38.90
2018-07-27T11:12:57.284Z,37.60
2018-07-27T11:17:53.419Z,39.40
2018-07-27T11:27:45.233Z,40.10
2018-07-27T11:30:13.368Z,38.10
2018-07-27T11:37:37.358Z,40.10
2018-07-27T11:40:05.954Z,39.60
2018-07-27T11:42:34.127Z,39.20
2018-07-27T11:45:02.250Z,40.20
2018-07-27T11:47:30.461Z,39.90
2018-07-27T11:52:26.524Z,39.60
2018-07-27T11:54:54.668Z,39.50
2018-07-27T11:57:22.804Z,39.30
2018-07-27T11:59:50.951Z,38.90
2018-07-27T12:02:19.092Z,38.60
2018-07-27T12:07:15.141Z,38.10
2018-07-27T12:09:43.264Z,39.70
2018-07-27T12:12:11.436Z,39.10
2018-07-27T12:14:39.773Z,40.10
2018-07-27T12:17:07.711Z,38.90
2018-07-27T12:22:03.760Z,37.90
2018-07-27T12:24:31.908Z,38.40
2018-07-27T12:27:00.080Z,39.40
2018-07-27T12:29:28.227Z,39.00
2018-07-27T12:31:56.376Z,40.80
2018-07-27T12:34:24.517Z,41.10
2018-07-27T12:36:52.643Z,41.20
2018-07-27T12:39:20.788Z,40.40
2018-07-27T12:41:48.937Z,38.40
2018-07-27T12:44:17.096Z,39.50
2018-07-27T12:46:45.244Z,40.80
2018-07-27T12:56:37.112Z,41.10
2018-07-27T13:01:33.209Z,40.20
2018-07-27T13:06:29.231Z,39.50
2018-07-27T13:11:25.289Z,41.30
2018-07-27T13:13:53.437Z,41.80
2018-07-27T13:16:21.584Z,40.70
2018-07-27T13:18:49.736Z,40.90
2018-07-27T13:21:17.880Z,40.30
2018-07-27T13:23:55.588Z,39.60
2018-07-27T13:28:51.888Z,40.60
2018-07-27T13:34:03.667Z,40.10
2018-07-27T13:36:31.820Z,39.80
2018-07-27T13:38:59.984Z,40.20
2018-07-27T13:41:28.127Z,39.60
2018-07-27T13:43:56.304Z,40.90
2018-07-27T13:46:24.464Z,40.80
2018-07-27T13:48:52.580Z,41.90
2018-07-27T13:51:20.724Z,40.30
2018-07-27T13:56:16.793Z,40.80
2018-07-27T13:58:44.936Z,41.60
2018-07-27T14:01:13.104Z,42.00
2018-07-27T14:03:41.245Z,42.80
2018-07-27T14:06:09.385Z,41.50
2018-07-27T14:11:05.444Z,42.30
2018-07-27T14:13:33.600Z,42.50
2018-07-27T14:16:01.733Z,40.70
2018-07-27T14:20:57.775Z,40.80
2018-07-27T14:23:25.912Z,39.80
2018-07-27T14:25:54.064Z,40.10
2018-07-27T14:28:22.212Z,39.90
2018-07-27T14:30:50.347Z,39.40
2018-07-27T14:33:18.497Z,39.10
2018-07-27T14:38:14.584Z,40.50
2018-07-27T14:40:42.716Z,40.70
2018-07-27T14:45:38.763Z,40.20
2018-07-27T14:53:02.731Z,40.40
2018-07-27T14:55:30.883Z,41.50
2018-07-27T14:57:59.025Z,41.50
2018-07-27T15:00:27.456Z,41.70
2018-07-27T15:02:55.595Z,41.10
2018-07-27T15:07:51.629Z,40.80
2018-07-27T15:10:19.778Z,40.00
2018-07-27T15:12:47.976Z,40.90
2018-07-27T15:17:44.028Z,41.70
2018-07-27T15:20:12.208Z,41.20
2018-07-27T15:22:40.350Z,42.20
2018-07-27T15:25:08.498Z,40.90
2018-07-27T15:27:36.624Z,40.20
2018-07-27T15:30:05.108Z,40.10
2018-07-27T15:32:33.256Z,40.00
2018-07-27T15:35:01.381Z,40.40
2018-07-27T15:37:29.521Z,40.40
2018-07-27T15:39:57.654Z,41.30
2018-07-27T15:52:17.492Z,41.90
2018-07-27T15:54:45.630Z,40.00
2018-07-27T16:02:09.581Z,40.60
2018-07-27T16:04:37.762Z,41.50
2018-07-27T16:07:05.991Z,41.80
2018-07-27T16:09:34.132Z,42.10
2018-07-27T16:12:02.286Z,42.10
2018-07-27T16:19:32.913Z,38.90
2018-07-27T16:22:01.441Z,39.20
2018-07-27T16:24:30.321Z,40.60
2018-07-27T16:26:58.438Z,41.00
2018-07-27T16:31:55.120Z,39.80
2018-07-27T16:36:51.185Z,40.20
2018-07-27T16:39:19.435Z,40.90
2018-07-27T16:41:47.559Z,40.20
2018-07-27T16:46:43.621Z,39.90
2018-07-27T16:49:11.792Z,40.60
2018-07-27T16:54:07.867Z,40.20
2018-07-27T16:59:03.940Z,39.80
2018-07-27T17:01:32.097Z,38.60
2018-07-27T17:06:28.155Z,39.50
2018-07-27T17:11:24.191Z,39.00
2018-07-27T17:18:48.171Z,39.20
2018-07-27T17:23:44.216Z,38.60
2018-07-27T17:26:12.356Z,38.90
2018-07-27T17:28:40.484Z,38.70
2018-07-27T17:36:04.474Z,38.00
2018-07-27T17:38:32.619Z,38.30
2018-07-27T17:41:00.771Z,38.10
2018-07-27T17:43:28.929Z,37.90
2018-07-27T17:45:57.089Z,37.20
2018-07-27T17:48:25.271Z,37.30
2018-07-27T17:53:21.293Z,37.30
2018-07-27T17:55:49.432Z,37.20
2018-07-27T17:58:17.601Z,36.60
2018-07-27T18:00:46.226Z,36.70
2018-07-27T18:03:14.388Z,36.60
2018-07-27T18:05:42.520Z,35.90
2018-07-27T18:08:10.743Z,35.20
2018-07-27T18:10:38.807Z,35.40
2018-07-27T18:13:07.016Z,35.00
2018-07-27T18:15:35.148Z,35.10
2018-07-27T18:18:03.318Z,34.60
2018-07-27T18:20:31.443Z,33.50
2018-07-27T18:22:59.588Z,32.80
2018-07-27T18:25:27.781Z,32.80
2018-07-27T18:27:55.928Z,32.60
2018-07-27T18:30:24.104Z,32.20
2018-07-27T18:32:52.192Z,31.60
2018-07-27T18:35:20.339Z,31.10
2018-07-27T18:37:48.511Z,30.80
2018-07-27T18:42:44.696Z,30.40
2018-07-27T18:45:12.852Z,30.20
2018-07-27T18:47:41.017Z,30.10
2018-07-27T18:50:09.842Z,29.90
2018-07-27T18:52:38.264Z,29.90
2018-07-27T18:57:34.625Z,29.40
2018-07-27T19:00:02.994Z,29.30
2018-07-27T19:04:59.040Z,28.90
2018-07-27T19:07:27.194Z,28.80
2018-07-27T19:09:55.352Z,28.70
2018-07-27T19:12:23.498Z,28.60
2018-07-27T19:14:51.642Z,28.50
2018-07-27T19:17:19.795Z,28.40
2018-07-27T19:19:47.936Z,28.20
2018-07-27T19:22:16.092Z,28.10
2018-07-27T19:24:44.244Z,27.90
2018-07-27T19:27:12.405Z,27.80
2018-07-27T19:29:40.565Z,27.80
2018-07-27T19:32:08.723Z,27.60
2018-07-27T19:37:04.852Z,27.40
2018-07-27T19:42:00.936Z,27.20
2018-07-27T19:44:29.072Z,27.10
2018-07-27T19:46:57.238Z,27.00
2018-07-27T19:49:25.393Z,27.00
2018-07-27T19:51:53.565Z,26.90
2018-07-27T19:54:21.799Z,26.80
2018-07-27T19:59:17.844Z,26.70
2018-07-27T20:04:20.479Z,26.50
2018-07-27T20:06:48.616Z,26.40
2018-07-27T20:09:16.773Z,26.40
2018-07-27T20:19:09.249Z,26.10
2018-07-27T20:24:05.305Z,25.90
2018-07-27T20:26:33.461Z,25.90
2018-07-27T20:33:57.493Z,25.70
2018-07-27T20:36:25.940Z,25.70
2018-07-27T20:38:54.266Z,25.70
2018-07-27T20:43:50.388Z,25.50
2018-07-27T20:46:18.533Z,25.50
2018-07-27T20:48:46.732Z,25.50
2018-07-27T20:51:14.916Z,25.40
2018-07-27T20:56:11.070Z,25.40
2018-07-27T20:58:39.273Z,25.30
2018-07-27T21:01:07.425Z,25.30
2018-07-27T21:06:04.041Z,25.20
2018-07-27T21:08:32.606Z,25.20
2018-07-27T21:13:29.317Z,25.10
2018-07-27T21:15:57.488Z,25.00
2018-07-27T21:20:53.554Z,24.90
2018-07-27T21:28:17.608Z,24.80
2018-07-27T21:35:41.739Z,24.80
2018-07-27T21:38:10.228Z,24.80
2018-07-27T21:40:38.356Z,24.70
2018-07-27T21:43:06.537Z,24.70
2018-07-27T21:45:34.726Z,24.60
2018-07-27T21:48:02.842Z,24.70
2018-07-27T21:50:31.005Z,24.50
2018-07-27T21:52:59.166Z,24.50
2018-07-27T21:55:27.328Z,24.50
2018-07-27T21:57:55.526Z,24.70
2018-07-27T22:00:23.656Z,25.10
2018-07-27T22:02:51.787Z,25.30
2018-07-27T22:07:52.125Z,25.50
2018-07-27T22:10:20.291Z,25.50
2018-07-27T22:12:48.497Z,25.50
2018-07-27T22:15:21.069Z,25.30
2018-07-27T22:17:49.292Z,25.10
2018-07-27T22:20:17.473Z,25.10
2018-07-27T22:22:45.624Z,25.10
2018-07-27T22:25:13.813Z,25.00
2018-07-27T22:27:42.037Z,25.10
2018-07-27T22:32:39.246Z,25.30
2018-07-27T22:37:35.696Z,25.20
2018-07-27T22:42:32.276Z,25.10
2018-07-27T22:45:00.425Z,25.00
2018-07-27T22:47:28.744Z,24.80
2018-07-27T22:49:56.897Z,24.70
2018-07-27T22:54:53.788Z,24.70
2018-07-27T22:57:22.011Z,24.80
2018-07-27T22:59:50.168Z,24.70
2018-07-27T23:02:18.320Z,24.70
2018-07-27T23:04:47.033Z,24.70
2018-07-27T23:07:15.167Z,24.60
2018-07-27T23:09:43.301Z,24.70
2018-07-27T23:12:11.458Z,24.70
2018-07-27T23:14:39.600Z,24.70
2018-07-27T23:17:07.765Z,24.70
2018-07-27T23:19:35.905Z,24.50
2018-07-27T23:22:04.726Z,24.10
2018-07-27T23:24:32.895Z,24.20
2018-07-27T23:29:28.923Z,24.10
2018-07-27T23:31:57.077Z,24.30
2018-07-27T23:34:25.676Z,24.10
2018-07-27T23:36:53.830Z,24.00
2018-07-27T23:39:21.984Z,24.10
2018-07-27T23:41:50.126Z,24.00
2018-07-27T23:44:18.284Z,24.10
2018-07-27T23:46:46.437Z,23.90
2018-07-27T23:49:14.608Z,24.00
2018-07-27T23:56:38.528Z,24.00
2018-07-27T23:59:06.789Z,24.00
